Red Lake Falls, Minnesota
Current Conditions -  °F | °C
As of 11:15 PM on Thursday 30 Oct 2014 (Local Time) from KTVF Reporting Station
Clear Clear  
Wind Chill: 17°   Ceiling: Unl
Heat Index: 27°   Visibility: 10mi
Dew Point: 18°   Wind: 10mph
Humidity: 69%   Direction: 350°N
Pressure: 30.53"   Gusts: NA
Location:  47.88°N, 96.27°W
Report Text: KTVF 310415Z AUTO 35009KT 10SM CLR M03/M08 A3053 RMK AO1
Loading
Personal Weather Stations






























Interactive Weather Map
Tropical Storm Tracking
New forecast layout! Learn more

10-Day Weather Forecast

Advertisements
Track Severe Weather on mobile